createdAt,value
2022-10-01T00:00:56.455Z,27.90
2022-10-01T00:03:50.639Z,28.20
2022-10-01T00:06:32.329Z,29.40
2022-10-01T00:09:14.022Z,29.60
2022-10-01T00:11:56.941Z,29.40
2022-10-01T00:14:39.603Z,27.40
2022-10-01T00:17:21.311Z,28.30
2022-10-01T00:20:14.019Z,26.70
2022-10-01T00:22:56.301Z,27.60
2022-10-01T00:25:38.914Z,26.90
2022-10-01T00:28:21.097Z,28.10
2022-10-01T00:31:02.806Z,28.00
2022-10-01T00:33:44.906Z,28.40
2022-10-01T00:36:27.313Z,29.90
2022-10-01T00:39:11.378Z,26.20
2022-10-01T00:41:53.258Z,27.40
2022-10-01T00:44:37.813Z,25.00
2022-10-01T00:47:37.631Z,26.40
2022-10-01T00:50:26.474Z,25.40
2022-10-01T00:53:12.428Z,25.90
2022-10-01T00:55:57.243Z,25.90
2022-10-01T00:58:39.753Z,27.40
2022-10-01T01:01:22.470Z,24.60
2022-10-01T01:04:16.473Z,25.60
2022-10-01T01:07:02.748Z,25.30
2022-10-01T01:09:47.306Z,25.20
2022-10-01T01:12:45.583Z,24.20
2022-10-01T01:15:51.579Z,26.40
2022-10-01T01:18:52.589Z,25.10
2022-10-01T01:21:44.521Z,24.70
2022-10-01T01:24:56.112Z,26.80
2022-10-01T01:27:51.276Z,26.70
2022-10-01T01:30:34.240Z,26.10
2022-10-01T01:33:20.947Z,25.40
2022-10-01T01:36:32.405Z,27.10
2022-10-01T01:39:17.302Z,27.40
2022-10-01T01:42:05.420Z,26.50
2022-10-01T01:44:49.389Z,25.60
2022-10-01T01:47:34.663Z,25.70
2022-10-01T01:50:17.179Z,25.20
2022-10-01T01:53:00.092Z,27.20
2022-10-01T01:55:45.445Z,24.10
2022-10-01T01:58:28.391Z,26.20
2022-10-01T02:01:35.599Z,24.50
2022-10-01T02:04:26.179Z,24.30
2022-10-01T02:07:45.453Z,25.10
2022-10-01T02:10:39.224Z,25.30
2022-10-01T02:13:35.456Z,24.10
2022-10-01T02:16:36.091Z,25.20
2022-10-01T02:22:19.974Z,26.20
2022-10-01T02:25:05.341Z,25.00
2022-10-01T02:27:55.947Z,24.40
2022-10-01T02:33:25.866Z,23.50
2022-10-01T02:36:10.281Z,23.90
2022-10-01T02:38:53.445Z,23.80
2022-10-01T02:41:36.865Z,25.20
2022-10-01T02:44:23.484Z,25.70
2022-10-01T02:47:17.770Z,25.20
2022-10-01T02:50:01.332Z,23.50
2022-10-01T02:52:53.040Z,23.80
2022-10-01T02:55:39.654Z,23.70
2022-10-01T02:58:21.365Z,24.80
2022-10-01T03:01:03.779Z,24.00
2022-10-01T03:03:46.142Z,24.50
2022-10-01T03:06:28.345Z,25.40
2022-10-01T03:09:10.038Z,24.20
2022-10-01T03:11:51.727Z,24.70
2022-10-01T03:14:34.239Z,25.20
2022-10-01T03:17:16.952Z,24.80
2022-10-01T03:19:58.645Z,23.80
2022-10-01T03:22:40.334Z,24.60
2022-10-01T03:25:21.950Z,24.20
2022-10-01T03:28:06.451Z,24.40
2022-10-01T03:30:48.274Z,24.00
2022-10-01T03:33:29.968Z,25.30
2022-10-01T03:36:11.699Z,23.30
2022-10-01T03:38:53.449Z,23.90
2022-10-01T03:41:35.346Z,23.60
2022-10-01T03:44:17.754Z,23.10
2022-10-01T03:46:59.853Z,23.70
2022-10-01T03:49:41.543Z,21.90
2022-10-01T03:52:23.235Z,24.80
2022-10-01T03:55:06.052Z,26.10
2022-10-01T03:57:47.947Z,26.70
2022-10-01T04:00:29.639Z,24.40
2022-10-01T04:03:11.462Z,23.60
2022-10-01T04:05:53.123Z,26.00
2022-10-01T04:08:34.917Z,25.20
2022-10-01T04:11:16.813Z,22.80
2022-10-01T04:13:58.504Z,23.50
2022-10-01T04:16:40.222Z,23.10
2022-10-01T04:19:21.819Z,26.10
2022-10-01T04:22:03.678Z,24.10
2022-10-01T04:24:45.284Z,23.30
2022-10-01T04:27:26.959Z,24.30
2022-10-01T04:30:10.395Z,24.00
2022-10-01T04:32:52.080Z,23.30
2022-10-01T04:35:33.975Z,22.30
2022-10-01T04:38:17.305Z,25.20
2022-10-01T04:40:59.098Z,24.90
2022-10-01T04:43:41.301Z,22.50
2022-10-01T04:46:23.159Z,21.90
2022-10-01T04:49:04.991Z,23.80
2022-10-01T04:51:46.562Z,23.70
2022-10-01T04:54:28.270Z,23.90
2022-10-01T04:57:09.960Z,23.30
2022-10-01T04:59:51.651Z,24.90
2022-10-01T05:02:34.749Z,22.50
2022-10-01T05:05:18.834Z,24.40
2022-10-01T05:08:00.923Z,23.50
2022-10-01T05:10:42.882Z,21.80
2022-10-01T05:13:27.889Z,24.10
2022-10-01T05:16:10.009Z,24.20
2022-10-01T05:18:51.680Z,23.20
2022-10-01T05:21:33.587Z,22.10
2022-10-01T05:24:16.393Z,24.30
2022-10-01T05:26:58.698Z,21.90
2022-10-01T05:29:41.721Z,22.50
2022-10-01T05:32:23.531Z,22.90
2022-10-01T05:35:07.242Z,21.90
2022-10-01T05:37:53.144Z,23.40
2022-10-01T05:40:34.832Z,23.70
2022-10-01T05:43:16.422Z,24.50
2022-10-01T05:46:02.172Z,25.00
2022-10-01T05:48:44.001Z,25.00
2022-10-01T05:51:25.999Z,23.50
2022-10-01T05:54:08.509Z,24.30
2022-10-01T05:56:50.611Z,24.00
2022-10-01T05:59:32.347Z,25.80
2022-10-01T06:02:14.062Z,25.50
2022-10-01T06:04:55.990Z,23.80
2022-10-01T06:07:37.682Z,25.70
2022-10-01T06:10:20.934Z,26.80
2022-10-01T06:13:06.535Z,27.00
2022-10-01T06:15:48.287Z,25.60
2022-10-01T06:18:29.987Z,25.90
2022-10-01T06:21:11.665Z,26.90
2022-10-01T06:23:53.765Z,26.40
2022-10-01T06:26:36.684Z,26.60
2022-10-01T06:29:20.732Z,29.40
2022-10-01T06:32:02.388Z,26.50
2022-10-01T06:34:44.215Z,28.70
2022-10-01T06:37:26.034Z,28.40
2022-10-01T06:40:08.415Z,25.70
2022-10-01T06:42:55.996Z,29.90
2022-10-01T06:45:41.306Z,31.60
2022-10-01T06:48:23.628Z,30.40
2022-10-01T06:51:06.037Z,31.00
2022-10-01T06:53:47.725Z,31.10
2022-10-01T06:56:29.313Z,29.40
2022-10-01T06:59:11.006Z,31.60
2022-10-01T07:01:56.396Z,31.00
2022-10-01T07:04:38.585Z,29.20
2022-10-01T07:07:20.185Z,28.40
2022-10-01T07:10:02.798Z,28.70
2022-10-01T07:12:44.579Z,26.50
2022-10-01T07:15:26.166Z,27.40
2022-10-01T07:18:11.237Z,27.60
2022-10-01T07:20:52.928Z,29.10
2022-10-01T07:23:34.620Z,27.30
2022-10-01T07:26:16.312Z,26.20
2022-10-01T07:28:58.000Z,26.70
2022-10-01T07:31:39.735Z,24.70
2022-10-01T07:34:22.510Z,25.20
2022-10-01T07:37:04.610Z,25.60
2022-10-01T07:39:46.299Z,23.30
2022-10-01T07:42:28.298Z,25.40
2022-10-01T07:45:11.221Z,23.80
2022-10-01T07:48:00.152Z,23.90
2022-10-01T07:50:46.068Z,25.20
2022-10-01T07:53:28.375Z,23.80
2022-10-01T07:56:09.990Z,23.70
2022-10-01T07:58:55.648Z,25.90
2022-10-01T08:01:38.373Z,22.90
2022-10-01T08:04:40.431Z,22.70
2022-10-01T08:07:22.125Z,20.00
2022-10-01T08:10:04.806Z,22.10
2022-10-01T08:12:47.040Z,21.10
2022-10-01T08:15:29.400Z,20.70
2022-10-01T08:18:12.273Z,20.30
2022-10-01T08:20:53.956Z,19.50
2022-10-01T08:23:36.567Z,19.00
2022-10-01T08:26:18.259Z,19.30
2022-10-01T08:29:00.054Z,17.40
2022-10-01T08:31:41.879Z,16.40
2022-10-01T08:34:23.843Z,16.50
2022-10-01T08:37:05.533Z,16.60
2022-10-01T08:39:47.237Z,17.40
2022-10-01T08:42:35.634Z,13.10
2022-10-01T08:45:43.364Z,13.80
2022-10-01T08:48:38.386Z,12.90
2022-10-01T08:51:40.038Z,13.60
2022-10-01T08:54:46.510Z,12.70
2022-10-01T08:57:32.500Z,13.90
2022-10-01T09:00:16.649Z,13.80
2022-10-01T09:03:04.601Z,11.70
2022-10-01T09:05:58.592Z,14.10
2022-10-01T09:08:52.842Z,14.50
2022-10-01T09:11:59.323Z,15.10
2022-10-01T09:15:08.663Z,12.20
2022-10-01T09:18:18.616Z,10.50
2022-10-01T09:21:00.717Z,12.60
2022-10-01T09:23:58.279Z,12.20
2022-10-01T09:26:45.192Z,12.50
2022-10-01T09:29:40.094Z,11.70
2022-10-01T09:32:30.488Z,11.80
2022-10-01T09:38:12.524Z,11.10
2022-10-01T09:40:55.810Z,11.30
2022-10-01T09:43:39.850Z,10.50
2022-10-01T09:46:21.605Z,11.80
2022-10-01T09:49:28.046Z,11.20
2022-10-01T09:52:18.482Z,9.50
2022-10-01T09:55:06.488Z,9.60
2022-10-01T09:57:53.998Z,10.40
2022-10-01T10:00:37.995Z,10.40
2022-10-01T10:03:31.093Z,9.80
2022-10-01T10:06:14.134Z,9.60
2022-10-01T10:08:58.151Z,7.40
2022-10-01T10:11:42.891Z,9.90
2022-10-01T10:14:31.801Z,8.50
2022-10-01T10:17:16.946Z,9.10
2022-10-01T10:19:59.139Z,9.00
2022-10-01T10:22:40.867Z,8.70
2022-10-01T10:25:24.709Z,8.80
2022-10-01T10:28:20.221Z,8.40
2022-10-01T10:31:02.137Z,8.50
2022-10-01T10:33:55.793Z,8.10
2022-10-01T10:40:53.381Z,8.50
2022-10-01T10:43:38.327Z,9.70
2022-10-01T10:46:23.532Z,9.70
2022-10-01T10:49:18.563Z,8.50
2022-10-01T10:52:01.856Z,8.90
2022-10-01T10:54:47.956Z,13.70
2022-10-01T10:57:34.661Z,10.00
2022-10-01T11:00:26.188Z,9.50
2022-10-01T11:03:15.019Z,9.90
2022-10-01T11:06:09.119Z,11.00
2022-10-01T11:09:02.599Z,10.30
2022-10-01T11:12:09.570Z,10.50
2022-10-01T11:14:57.610Z,9.30
2022-10-01T11:17:55.639Z,10.70
2022-10-01T11:21:01.032Z,10.90
2022-10-01T11:24:04.020Z,8.30
2022-10-01T11:27:11.678Z,9.80
2022-10-01T11:30:26.819Z,11.70
2022-10-01T11:33:18.009Z,10.80
2022-10-01T11:36:21.510Z,9.40
2022-10-01T11:39:10.259Z,8.90
2022-10-01T11:41:59.434Z,9.10
2022-10-01T11:45:03.606Z,8.80
2022-10-01T11:47:54.255Z,14.10
2022-10-01T11:50:48.549Z,11.60
2022-10-01T11:53:45.100Z,9.70
2022-10-01T11:56:54.212Z,7.80
2022-10-01T11:59:50.122Z,7.80
2022-10-01T12:02:39.098Z,6.80
2022-10-01T12:05:29.314Z,12.90
2022-10-01T12:08:22.228Z,15.00
2022-10-01T12:11:16.428Z,10.50
2022-10-01T12:14:09.076Z,8.80
2022-10-01T12:17:04.795Z,7.30
2022-10-01T12:19:53.334Z,6.80
2022-10-01T12:22:39.030Z,7.50
2022-10-01T12:25:26.558Z,8.20
2022-10-01T12:28:21.471Z,7.30
2022-10-01T12:31:11.026Z,7.10
2022-10-01T12:34:06.652Z,10.30
2022-10-01T12:37:41.798Z,7.40
2022-10-01T12:40:40.043Z,7.90
2022-10-01T12:43:40.131Z,6.60
2022-10-01T12:46:52.637Z,6.60
2022-10-01T12:50:05.841Z,5.90
2022-10-01T12:53:02.998Z,8.70
2022-10-01T12:55:55.130Z,6.60
2022-10-01T12:59:06.621Z,8.70
2022-10-01T13:02:10.890Z,7.40
2022-10-01T13:05:24.683Z,7.20
2022-10-01T13:08:27.878Z,7.30
2022-10-01T13:11:28.963Z,6.90
2022-10-01T13:14:19.071Z,8.70
2022-10-01T13:17:18.625Z,10.20
2022-10-01T13:20:09.223Z,9.20
2022-10-01T13:23:13.032Z,68.00
2022-10-01T13:26:23.403Z,45.60
2022-10-01T13:29:27.072Z,17.60
2022-10-01T13:32:26.510Z,14.30
2022-10-01T13:35:25.816Z,19.70
2022-10-01T13:38:15.000Z,12.20
2022-10-01T13:41:05.270Z,13.30
2022-10-01T13:43:59.351Z,49.30
2022-10-01T13:46:53.856Z,25.00
2022-10-01T13:49:37.889Z,8.90
2022-10-01T13:52:21.136Z,13.50
2022-10-01T13:55:03.319Z,9.20
2022-10-01T13:57:44.971Z,11.60
2022-10-01T14:00:27.673Z,9.30
2022-10-01T14:03:51.093Z,14.20
2022-10-01T14:06:35.183Z,14.00
2022-10-01T14:09:26.455Z,11.30
2022-10-01T14:12:31.800Z,10.20
2022-10-01T14:15:36.150Z,9.10
2022-10-01T14:18:24.284Z,10.00
2022-10-01T14:21:50.910Z,9.80
2022-10-01T14:25:10.284Z,12.80
2022-10-01T14:28:18.614Z,8.40
2022-10-01T14:31:15.670Z,10.40
2022-10-01T14:34:32.054Z,10.60
2022-10-01T14:37:18.279Z,8.40
2022-10-01T14:40:01.683Z,11.00
2022-10-01T14:42:44.000Z,17.90
2022-10-01T14:45:25.784Z,5.50
2022-10-01T14:48:10.031Z,5.40
2022-10-01T14:50:57.618Z,5.10
2022-10-01T14:53:43.141Z,6.50
2022-10-01T14:56:28.007Z,5.90
2022-10-01T14:59:20.143Z,5.20
2022-10-01T15:02:04.684Z,5.30
2022-10-01T15:04:51.887Z,4.60
2022-10-01T15:07:35.865Z,7.50
2022-10-01T15:10:20.602Z,4.70
2022-10-01T15:13:02.627Z,6.00
2022-10-01T15:15:44.521Z,7.20
2022-10-01T15:18:27.036Z,8.70
2022-10-01T15:21:18.041Z,12.20
2022-10-01T15:23:59.943Z,7.90
2022-10-01T15:26:41.709Z,16.10
2022-10-01T15:29:24.157Z,8.40
2022-10-01T15:32:07.161Z,10.70
2022-10-01T15:34:53.254Z,8.90
2022-10-01T15:37:37.172Z,7.30
2022-10-01T15:40:30.831Z,12.00
2022-10-01T15:43:24.544Z,10.80
2022-10-01T15:46:20.181Z,8.10
2022-10-01T15:49:13.218Z,8.50
2022-10-01T15:52:19.441Z,11.00
2022-10-01T15:55:01.178Z,7.90
2022-10-01T15:57:45.117Z,12.30
2022-10-01T16:00:29.761Z,10.90
2022-10-01T16:03:19.986Z,13.30
2022-10-01T16:06:04.131Z,11.70
2022-10-01T16:09:05.202Z,8.30
2022-10-01T16:11:59.141Z,8.10
2022-10-01T16:14:44.233Z,11.90
2022-10-01T16:17:31.431Z,7.40
2022-10-01T16:20:17.015Z,9.30
2022-10-01T16:23:32.137Z,11.50
2022-10-01T16:26:38.640Z,9.40
2022-10-01T16:29:26.205Z,9.20
2022-10-01T16:32:13.688Z,11.20
2022-10-01T16:35:15.785Z,10.70
2022-10-01T16:37:58.297Z,11.90
2022-10-01T16:40:43.581Z,9.70
2022-10-01T16:43:25.420Z,11.80
2022-10-01T16:46:07.205Z,18.00
2022-10-01T16:48:53.770Z,12.70
2022-10-01T16:51:35.559Z,12.50
2022-10-01T16:54:27.591Z,11.20
2022-10-01T16:57:14.112Z,12.20
2022-10-01T17:00:03.277Z,10.20
2022-10-01T17:02:47.509Z,11.20
2022-10-01T17:05:37.380Z,9.20
2022-10-01T17:08:19.869Z,8.70
2022-10-01T17:11:04.379Z,10.10
2022-10-01T17:13:49.201Z,9.70
2022-10-01T17:16:31.058Z,9.40
2022-10-01T17:19:13.987Z,10.20
2022-10-01T17:21:56.041Z,10.00
2022-10-01T17:24:38.479Z,8.80
2022-10-01T17:27:20.872Z,9.40
2022-10-01T17:30:03.786Z,12.00
2022-10-01T17:32:46.666Z,11.20
2022-10-01T17:35:29.820Z,12.90
2022-10-01T17:38:13.321Z,12.50
2022-10-01T17:40:56.856Z,10.10
2022-10-01T17:43:41.752Z,8.00
2022-10-01T17:46:23.910Z,7.50
2022-10-01T17:49:08.514Z,8.60
2022-10-01T17:51:50.718Z,8.00
2022-10-01T17:54:34.155Z,9.00
2022-10-01T17:57:16.289Z,8.30
2022-10-01T17:59:58.705Z,10.20
2022-10-01T18:02:42.872Z,9.40
2022-10-01T18:05:25.211Z,9.10
2022-10-01T18:08:08.989Z,8.30
2022-10-01T18:10:52.455Z,9.00
2022-10-01T18:13:39.104Z,8.70
2022-10-01T18:16:21.974Z,9.30
2022-10-01T18:22:13.627Z,9.40
2022-10-01T18:24:56.987Z,9.40
2022-10-01T18:27:39.702Z,9.30
2022-10-01T18:30:22.004Z,12.60
2022-10-01T18:33:04.211Z,10.90
2022-10-01T18:35:51.631Z,9.60
2022-10-01T18:38:35.667Z,12.10
2022-10-01T18:41:39.206Z,12.30
2022-10-01T18:44:21.735Z,10.50
2022-10-01T18:47:24.271Z,10.30
2022-10-01T18:50:35.539Z,9.80
2022-10-01T18:53:36.703Z,10.10
2022-10-01T18:56:29.315Z,9.10
2022-10-01T18:59:32.676Z,10.10
2022-10-01T19:02:36.050Z,11.70
2022-10-01T19:05:25.559Z,10.00
2022-10-01T19:08:11.560Z,14.60
2022-10-01T19:11:08.413Z,12.60
2022-10-01T19:14:28.450Z,12.10
2022-10-01T19:17:24.349Z,12.90
2022-10-01T19:20:45.905Z,11.50
2022-10-01T19:24:07.621Z,12.10
2022-10-01T19:27:09.800Z,12.80
2022-10-01T19:29:58.115Z,11.10
2022-10-01T19:32:59.397Z,10.40
2022-10-01T19:35:47.029Z,11.30
2022-10-01T19:38:41.007Z,12.30
2022-10-01T19:41:44.103Z,11.10
2022-10-01T19:44:40.979Z,10.20
2022-10-01T19:47:45.120Z,10.40
2022-10-01T19:50:50.951Z,11.20
2022-10-01T19:53:37.652Z,10.70
2022-10-01T19:56:26.283Z,12.80
2022-10-01T19:59:15.689Z,11.70
2022-10-01T20:02:25.823Z,11.60
2022-10-01T20:05:16.528Z,10.20
2022-10-01T20:08:10.286Z,12.90
2022-10-01T20:11:28.128Z,11.80
2022-10-01T20:15:01.585Z,11.90
2022-10-01T20:17:51.301Z,11.30
2022-10-01T20:21:07.116Z,12.30
2022-10-01T20:23:55.093Z,14.20
2022-10-01T20:27:17.912Z,12.30
2022-10-01T20:30:07.617Z,12.00
2022-10-01T20:32:57.705Z,11.50
2022-10-01T20:36:15.378Z,11.70
2022-10-01T20:39:37.701Z,10.00
2022-10-01T20:42:30.691Z,11.20
2022-10-01T20:45:26.706Z,12.30
2022-10-01T20:48:23.754Z,11.20
2022-10-01T20:51:25.943Z,10.70
2022-10-01T20:54:33.951Z,12.20
2022-10-01T20:57:25.881Z,10.80
2022-10-01T21:00:24.213Z,10.70
2022-10-01T21:03:34.414Z,10.10
2022-10-01T21:06:27.069Z,9.40
2022-10-01T21:09:26.246Z,11.00
2022-10-01T21:12:20.720Z,13.80
2022-10-01T21:15:06.509Z,13.40
2022-10-01T21:18:19.044Z,10.90
2022-10-01T21:21:21.796Z,11.80
2022-10-01T21:24:21.869Z,13.40
2022-10-01T21:27:22.034Z,10.70
2022-10-01T21:30:35.972Z,11.30
2022-10-01T21:33:53.470Z,10.00
2022-10-01T21:36:51.853Z,9.60
2022-10-01T21:40:00.884Z,10.10
2022-10-01T21:42:53.194Z,10.00
2022-10-01T21:45:54.840Z,12.00
2022-10-01T21:49:08.526Z,10.10
2022-10-01T21:52:02.809Z,9.10
2022-10-01T21:55:04.571Z,9.10
2022-10-01T21:58:02.339Z,10.30
2022-10-01T22:00:55.229Z,9.10
2022-10-01T22:04:23.885Z,9.10
2022-10-01T22:07:31.998Z,8.50
2022-10-01T22:10:35.808Z,8.30
2022-10-01T22:13:25.178Z,7.90
2022-10-01T22:16:13.838Z,9.30
2022-10-01T22:18:58.161Z,9.20
2022-10-01T22:21:46.211Z,9.20
2022-10-01T22:24:33.967Z,8.30
2022-10-01T22:27:33.540Z,9.00
2022-10-01T22:30:23.452Z,7.00
2022-10-01T22:33:31.457Z,9.10
2022-10-01T22:36:24.983Z,8.50
2022-10-01T22:39:23.921Z,7.80
2022-10-01T22:42:30.506Z,7.40
2022-10-01T22:45:14.766Z,8.50
2022-10-01T22:48:19.477Z,7.70
2022-10-01T22:51:19.907Z,7.50
2022-10-01T22:54:22.180Z,7.20
2022-10-01T22:57:31.932Z,7.50
2022-10-01T23:00:15.465Z,9.10
2022-10-01T23:03:23.496Z,8.10
2022-10-01T23:06:11.605Z,7.80
2022-10-01T23:09:07.847Z,8.00
2022-10-01T23:11:55.988Z,8.20
2022-10-01T23:14:57.953Z,9.10
2022-10-01T23:17:46.245Z,8.80
2022-10-01T23:20:34.853Z,8.00
2022-10-01T23:23:33.091Z,9.90
2022-10-01T23:26:23.123Z,12.40
2022-10-01T23:29:23.752Z,11.00
2022-10-01T23:32:13.431Z,10.30
2022-10-01T23:35:04.892Z,11.10
2022-10-01T23:38:10.605Z,9.60
2022-10-01T23:40:52.504Z,8.90
2022-10-01T23:43:48.328Z,10.60
2022-10-01T23:46:33.881Z,10.10
2022-10-01T23:49:17.161Z,9.90
2022-10-01T23:52:11.008Z,8.80
2022-10-01T23:55:17.999Z,10.00
2022-10-01T23:58:03.336Z,9.00
